createdAt,value
2023-04-17T00:00:03.691Z,61.36
2023-04-17T00:01:50.301Z,64.66
2023-04-17T00:03:19.769Z,65.42
2023-04-17T00:05:00.681Z,63.50
2023-04-17T00:06:34.164Z,61.38
2023-04-17T00:08:07.415Z,59.16
2023-04-17T00:09:40.492Z,57.64
2023-04-17T00:11:10.040Z,58.28
2023-04-17T00:12:46.734Z,60.18
2023-04-17T00:14:10.816Z,62.15
2023-04-17T00:15:53.166Z,64.32
2023-04-17T00:17:33.808Z,64.85
2023-04-17T00:19:07.201Z,62.46
2023-04-17T00:21:02.205Z,60.41
2023-04-17T00:22:38.369Z,58.13
2023-04-17T00:24:03.077Z,57.87
2023-04-17T00:25:26.581Z,59.29
2023-04-17T00:27:01.402Z,61.42
2023-04-17T00:28:42.428Z,63.99
2023-04-17T00:30:18.629Z,65.15
2023-04-17T00:31:48.575Z,63.28
2023-04-17T00:33:21.723Z,61.46
2023-04-17T00:34:44.073Z,59.45
2023-04-17T00:36:19.453Z,57.80
2023-04-17T00:38:04.753Z,58.38
2023-04-17T00:39:37.948Z,60.55
2023-04-17T00:41:19.323Z,62.49
2023-04-17T00:42:59.940Z,64.95
2023-04-17T00:44:40.328Z,64.84
2023-04-17T00:46:18.279Z,62.58
2023-04-17T00:47:54.343Z,60.31
2023-04-17T00:49:27.502Z,58.09
2023-04-17T00:51:12.111Z,57.76
2023-04-17T00:52:33.863Z,59.43
2023-04-17T00:54:07.275Z,61.40
2023-04-17T00:55:31.809Z,63.49
2023-04-17T00:57:08.309Z,65.49
2023-04-17T00:58:54.378Z,64.35
2023-04-17T01:00:34.672Z,61.70
2023-04-17T01:02:20.334Z,59.65
2023-04-17T01:04:06.214Z,57.75
2023-04-17T01:05:42.040Z,58.56
2023-04-17T01:07:17.003Z,60.46
2023-04-17T01:09:11.227Z,63.15
2023-04-17T01:10:57.644Z,65.16
2023-04-17T01:12:33.501Z,63.65
2023-04-17T01:14:28.152Z,61.10
2023-04-17T01:16:01.785Z,58.63
2023-04-17T01:17:48.879Z,57.72
2023-04-17T01:19:33.371Z,59.39
2023-04-17T01:20:58.505Z,61.40
2023-04-17T01:22:39.142Z,64.35
2023-04-17T01:24:24.311Z,65.27
2023-04-17T01:26:11.913Z,63.18
2023-04-17T01:27:52.595Z,60.86
2023-04-17T01:29:37.621Z,58.73
2023-04-17T01:31:13.439Z,57.76
2023-04-17T01:32:54.773Z,59.35
2023-04-17T01:34:27.435Z,61.68
2023-04-17T01:36:08.980Z,64.21
2023-04-17T01:37:42.363Z,65.21
2023-04-17T01:39:27.411Z,63.43
2023-04-17T01:41:19.359Z,61.01
2023-04-17T01:43:03.746Z,58.82
2023-04-17T01:44:44.688Z,57.79
2023-04-17T01:46:25.427Z,59.47
2023-04-17T01:48:11.139Z,61.48
2023-04-17T01:49:47.180Z,64.40
2023-04-17T01:51:20.406Z,65.51
2023-04-17T01:53:01.460Z,63.58
2023-04-17T01:54:54.301Z,61.07
2023-04-17T01:56:18.796Z,58.96
2023-04-17T01:57:53.289Z,57.69
2023-04-17T01:59:26.182Z,58.62
2023-04-17T02:01:15.498Z,60.89
2023-04-17T02:03:00.975Z,63.84
2023-04-17T02:04:25.189Z,65.49
2023-04-17T02:06:06.536Z,64.11
2023-04-17T02:09:30.935Z,59.44
2023-04-17T02:11:16.310Z,57.65
2023-04-17T02:13:01.538Z,58.57
2023-04-17T02:14:28.933Z,60.60
2023-04-17T02:16:22.727Z,63.00
2023-04-17T02:18:08.028Z,65.65
2023-04-17T02:19:53.772Z,64.08
2023-04-17T02:21:26.448Z,61.94
2023-04-17T02:23:20.251Z,59.82
2023-04-17T02:25:05.374Z,57.83
2023-04-17T02:26:58.559Z,58.74
2023-04-17T02:28:31.902Z,61.36
2023-04-17T02:30:17.808Z,63.78
2023-04-17T02:31:54.022Z,65.87
2023-04-17T02:33:15.672Z,64.35
2023-04-17T02:35:11.165Z,62.11
2023-04-17T02:36:47.152Z,59.75
2023-04-17T02:38:20.635Z,57.88
2023-04-17T02:40:04.116Z,58.08
2023-04-17T02:41:39.724Z,60.12
2023-04-17T02:43:13.708Z,62.33
2023-04-17T02:44:49.314Z,65.14
2023-04-17T02:46:33.995Z,64.64
2023-04-17T02:48:15.644Z,62.62
2023-04-17T02:50:00.610Z,60.40
2023-04-17T02:51:45.843Z,58.58
2023-04-17T02:53:29.120Z,58.01
2023-04-17T02:55:18.825Z,59.83
2023-04-17T02:57:10.034Z,62.63
2023-04-17T02:58:45.781Z,65.33
2023-04-17T03:00:30.737Z,64.66
2023-04-17T03:02:05.185Z,62.24
2023-04-17T03:03:53.402Z,60.24
2023-04-17T03:05:41.804Z,57.89
2023-04-17T03:07:17.211Z,58.08
2023-04-17T03:08:53.493Z,60.21
2023-04-17T03:10:26.780Z,62.32
2023-04-17T03:12:00.751Z,64.71
2023-04-17T03:13:45.873Z,65.28
2023-04-17T03:15:31.829Z,62.81
2023-04-17T03:17:23.418Z,60.45
2023-04-17T03:19:12.115Z,58.27
2023-04-17T03:20:57.236Z,58.31
2023-04-17T03:22:38.090Z,60.45
2023-04-17T03:24:23.882Z,62.83
2023-04-17T03:26:06.811Z,65.32
2023-04-17T03:27:40.376Z,64.39
2023-04-17T03:29:14.362Z,62.23
2023-04-17T03:30:59.438Z,60.13
2023-04-17T03:32:32.886Z,58.50
2023-04-17T03:34:15.096Z,57.98
2023-04-17T03:35:48.498Z,59.78
2023-04-17T03:37:33.478Z,62.23
2023-04-17T03:39:06.611Z,65.09
2023-04-17T03:40:51.495Z,64.68
2023-04-17T03:42:32.944Z,62.43
2023-04-17T03:44:25.623Z,60.21
2023-04-17T03:46:11.705Z,58.15
2023-04-17T03:47:44.979Z,58.24
2023-04-17T03:49:29.137Z,60.22
2023-04-17T03:51:03.059Z,63.02
2023-04-17T03:52:55.118Z,65.61
2023-04-17T03:54:35.989Z,64.69
2023-04-17T03:56:12.678Z,62.36
2023-04-17T03:57:48.677Z,60.62
2023-04-17T03:59:13.299Z,59.11
2023-04-17T04:00:56.876Z,57.89
2023-04-17T04:02:34.261Z,59.47
2023-04-17T04:04:18.408Z,61.91
2023-04-17T04:05:55.873Z,64.71
2023-04-17T04:07:29.526Z,65.43
2023-04-17T04:09:06.120Z,63.63
2023-04-17T04:10:39.552Z,61.21
2023-04-17T04:12:24.960Z,59.44
2023-04-17T04:14:00.955Z,57.92
2023-04-17T04:15:34.427Z,58.69
2023-04-17T04:17:15.319Z,61.04
2023-04-17T04:18:56.748Z,64.04
2023-04-17T04:20:36.828Z,65.98
2023-04-17T04:22:34.243Z,64.32
2023-04-17T04:24:20.283Z,61.73
2023-04-17T04:26:07.353Z,59.71
2023-04-17T04:27:57.066Z,58.02
2023-04-17T04:29:42.883Z,59.23
2023-04-17T04:31:26.258Z,61.73
2023-04-17T04:33:16.168Z,64.77
2023-04-17T04:35:09.631Z,65.37
2023-04-17T04:36:50.846Z,62.79
2023-04-17T04:38:32.073Z,60.74
2023-04-17T04:40:19.809Z,59.22
2023-04-17T04:41:51.429Z,58.02
2023-04-17T04:43:37.541Z,59.46
2023-04-17T04:45:23.240Z,61.94
2023-04-17T04:46:56.864Z,65.19
2023-04-17T04:48:26.256Z,65.81
2023-04-17T04:50:09.400Z,64.23
2023-04-17T04:51:33.810Z,62.24
2023-04-17T04:53:10.455Z,60.62
2023-04-17T04:55:01.036Z,59.32
2023-04-17T04:56:34.400Z,58.15
2023-04-17T04:58:15.255Z,59.25
2023-04-17T04:59:57.106Z,61.47
2023-04-17T05:01:44.743Z,64.85
2023-04-17T05:03:18.064Z,65.28
2023-04-17T05:05:02.222Z,63.67
2023-04-17T05:06:38.915Z,61.22
2023-04-17T05:08:20.392Z,59.54
2023-04-17T05:10:07.663Z,57.91
2023-04-17T05:11:54.390Z,59.15
2023-04-17T05:13:42.102Z,61.53
2023-04-17T05:15:32.501Z,64.93
2023-04-17T05:17:09.942Z,65.36
2023-04-17T05:18:58.152Z,63.55
2023-04-17T05:20:40.297Z,60.94
2023-04-17T05:22:27.535Z,59.43
2023-04-17T05:24:20.844Z,57.97
2023-04-17T05:26:11.546Z,59.55
2023-04-17T05:27:37.484Z,61.91
2023-04-17T05:29:13.533Z,64.50
2023-04-17T05:30:59.402Z,65.28
2023-04-17T05:32:53.900Z,63.08
2023-04-17T05:34:36.316Z,61.14
2023-04-17T05:36:01.574Z,59.07
2023-04-17T05:37:51.203Z,57.89
2023-04-17T05:39:13.279Z,59.27
2023-04-17T05:40:35.162Z,61.14
2023-04-17T05:41:57.518Z,63.76
2023-04-17T05:43:42.679Z,65.67
2023-04-17T05:45:28.027Z,64.23
2023-04-17T05:47:04.325Z,61.85
2023-04-17T05:48:37.292Z,59.93
2023-04-17T05:50:18.940Z,58.24
2023-04-17T05:51:53.115Z,58.35
2023-04-17T05:53:38.269Z,60.28
2023-04-17T05:55:23.764Z,63.31
2023-04-17T05:57:11.363Z,65.97
2023-04-17T05:58:45.102Z,64.54
2023-04-17T06:00:24.754Z,62.54
2023-04-17T06:01:48.902Z,60.24
2023-04-17T06:03:36.515Z,58.31
2023-04-17T06:05:24.212Z,58.21
2023-04-17T06:07:09.794Z,60.55
2023-04-17T06:08:58.075Z,63.62
2023-04-17T06:10:33.539Z,65.24
2023-04-17T06:12:24.529Z,63.76
2023-04-17T06:14:03.085Z,61.67
2023-04-17T06:15:44.960Z,60.01
2023-04-17T06:17:20.970Z,57.95
2023-04-17T06:18:57.017Z,58.06
2023-04-17T06:20:41.999Z,60.31
2023-04-17T06:22:27.601Z,63.13
2023-04-17T06:23:57.190Z,64.70
2023-04-17T06:25:19.087Z,63.92
2023-04-17T06:27:04.704Z,61.99
2023-04-17T06:28:40.168Z,59.42
2023-04-17T06:30:05.400Z,58.24
2023-04-17T06:31:53.501Z,58.72
2023-04-17T06:33:38.114Z,60.92
2023-04-17T06:35:15.209Z,62.89
2023-04-17T06:37:11.460Z,65.31
2023-04-17T06:38:47.580Z,64.21
2023-04-17T06:40:21.571Z,62.18
2023-04-17T06:42:08.204Z,60.15
2023-04-17T06:43:36.991Z,58.62
2023-04-17T06:45:26.997Z,58.18
2023-04-17T06:46:48.702Z,59.17
2023-04-17T06:48:24.540Z,61.04
2023-04-17T06:50:00.717Z,63.07
2023-04-17T06:51:41.675Z,65.40
2023-04-17T06:53:26.887Z,63.86
2023-04-17T06:55:10.165Z,62.19
2023-04-17T06:56:43.761Z,59.80
2023-04-17T06:58:17.153Z,57.52
2023-04-17T06:59:50.614Z,57.83
2023-04-17T07:01:31.406Z,59.42
2023-04-17T07:03:25.182Z,62.06
2023-04-17T07:07:01.133Z,64.26
2023-04-17T07:08:55.681Z,61.33
2023-04-17T07:10:31.136Z,59.29
2023-04-17T07:12:18.850Z,58.06
2023-04-17T07:13:54.661Z,58.90
2023-04-17T07:15:30.442Z,60.65
2023-04-17T07:17:06.332Z,63.63
2023-04-17T07:18:39.645Z,64.70
2023-04-17T07:20:13.221Z,63.97
2023-04-17T07:21:54.120Z,61.86
2023-04-17T07:23:27.434Z,59.12
2023-04-17T07:25:12.746Z,57.26
2023-04-17T07:26:45.940Z,58.64
2023-04-17T07:28:39.941Z,60.99
2023-04-17T07:30:16.064Z,63.17
2023-04-17T07:31:49.527Z,64.77
2023-04-17T07:33:25.564Z,63.58
2023-04-17T07:35:07.125Z,61.73
2023-04-17T07:37:00.480Z,60.12
2023-04-17T07:38:45.437Z,56.98
2023-04-17T07:40:30.572Z,57.46
2023-04-17T07:42:18.071Z,59.33
2023-04-17T07:44:03.437Z,62.51
2023-04-17T07:45:37.578Z,64.30
2023-04-17T07:47:23.933Z,63.53
2023-04-17T07:48:57.748Z,61.17
2023-04-17T07:50:33.315Z,59.46
2023-04-17T07:52:00.159Z,57.54
2023-04-17T07:53:45.441Z,57.89
2023-04-17T07:55:26.582Z,59.83
2023-04-17T07:56:49.415Z,61.16
2023-04-17T07:58:23.090Z,63.10
2023-04-17T08:00:17.272Z,64.69
2023-04-17T08:01:50.773Z,62.63
2023-04-17T08:03:24.488Z,59.76
2023-04-17T08:05:10.026Z,57.77
2023-04-17T08:06:36.153Z,58.04
2023-04-17T08:08:09.727Z,59.35
2023-04-17T08:10:03.418Z,61.00
2023-04-17T08:11:57.920Z,63.78
2023-04-17T08:13:29.656Z,63.75
2023-04-17T08:15:03.486Z,61.36
2023-04-17T08:16:48.876Z,59.15
2023-04-17T08:18:21.890Z,57.75
2023-04-17T08:19:53.492Z,58.66
2023-04-17T08:21:38.478Z,60.04
2023-04-17T08:23:23.710Z,62.13
2023-04-17T08:25:09.612Z,64.06
2023-04-17T08:26:43.031Z,63.23
2023-04-17T08:28:20.820Z,61.17
2023-04-17T08:30:07.185Z,58.20
2023-04-17T08:31:40.480Z,57.14
2023-04-17T08:33:23.006Z,58.35
2023-04-17T08:34:47.085Z,60.31
2023-04-17T08:36:28.330Z,62.21
2023-04-17T08:38:15.007Z,65.22
2023-04-17T08:39:38.839Z,64.35
2023-04-17T08:41:05.663Z,62.07
2023-04-17T08:42:50.601Z,58.99
2023-04-17T08:44:21.958Z,56.55
2023-04-17T08:45:59.042Z,56.91
2023-04-17T08:47:23.291Z,59.71
2023-04-17T08:49:18.167Z,61.86
2023-04-17T08:51:03.576Z,63.79
2023-04-17T08:52:48.682Z,61.62
2023-04-17T08:54:21.986Z,58.57
2023-04-17T08:55:57.983Z,56.63
2023-04-17T08:57:49.181Z,57.48
2023-04-17T08:59:23.966Z,58.47
2023-04-17T09:00:46.055Z,59.81
2023-04-17T09:02:10.374Z,60.90
2023-04-17T09:04:00.541Z,62.70
2023-04-17T09:05:45.920Z,63.84
2023-04-17T09:07:31.106Z,61.47
2023-04-17T09:09:05.098Z,58.52
2023-04-17T09:10:38.741Z,57.07
2023-04-17T09:12:01.136Z,57.84
2023-04-17T09:13:35.342Z,59.37
2023-04-17T09:15:08.812Z,61.36
2023-04-17T09:16:57.132Z,62.38
2023-04-17T09:18:32.880Z,63.50
2023-04-17T09:20:09.152Z,61.83
2023-04-17T09:21:54.610Z,59.38
2023-04-17T09:23:18.666Z,56.85
2023-04-17T09:25:12.609Z,57.02
2023-04-17T09:26:46.378Z,59.10
2023-04-17T09:28:10.264Z,60.51
2023-04-17T09:29:43.694Z,61.93
2023-04-17T09:31:17.234Z,63.70
2023-04-17T09:32:50.609Z,63.35
2023-04-17T09:34:16.859Z,61.28
2023-04-17T09:35:50.987Z,58.49
2023-04-17T09:37:35.886Z,56.80
2023-04-17T09:39:20.822Z,57.72
2023-04-17T09:40:54.400Z,59.36
2023-04-17T09:42:23.559Z,60.68
2023-04-17T09:43:55.712Z,62.16
2023-04-17T09:45:17.857Z,64.12
2023-04-17T09:46:58.574Z,63.31
2023-04-17T09:48:20.279Z,61.08
2023-04-17T09:50:04.547Z,59.62
2023-04-17T09:51:44.865Z,56.40
2023-04-17T09:53:27.152Z,56.23
2023-04-17T09:54:52.133Z,57.17
2023-04-17T09:56:47.089Z,57.88
2023-04-17T09:58:17.008Z,59.46
2023-04-17T09:59:48.718Z,60.60
2023-04-17T10:01:13.204Z,62.04
2023-04-17T10:03:03.314Z,63.08
2023-04-17T10:04:39.212Z,63.08
2023-04-17T10:06:34.044Z,60.57
2023-04-17T10:08:16.889Z,57.65
2023-04-17T10:10:11.144Z,56.45
2023-04-17T10:11:32.794Z,57.71
2023-04-17T10:13:06.986Z,59.43
2023-04-17T10:14:48.219Z,60.34
2023-04-17T10:16:21.534Z,61.33
2023-04-17T10:17:43.543Z,62.24
2023-04-17T10:19:28.610Z,63.70
2023-04-17T10:21:15.197Z,63.14
2023-04-17T10:23:09.033Z,59.82
2023-04-17T10:24:42.644Z,56.32
2023-04-17T10:26:16.039Z,56.04
2023-04-17T10:27:59.144Z,56.69
2023-04-17T10:29:32.025Z,58.68
2023-04-17T10:31:26.054Z,60.08
2023-04-17T10:33:13.980Z,61.23
2023-04-17T10:35:09.265Z,62.06
2023-04-17T10:36:51.953Z,62.61
2023-04-17T10:38:27.078Z,63.06
2023-04-17T10:40:04.202Z,61.09
2023-04-17T10:41:48.945Z,57.64
2023-04-17T10:43:23.607Z,56.05
2023-04-17T10:45:08.895Z,56.67
2023-04-17T10:46:44.677Z,58.33
2023-04-17T10:48:06.708Z,59.41
2023-04-17T10:49:35.811Z,60.69
2023-04-17T10:51:17.427Z,61.75
2023-04-17T10:52:42.184Z,63.00
2023-04-17T10:54:18.140Z,63.68
2023-04-17T10:55:51.909Z,61.49
2023-04-17T10:57:13.549Z,58.98
2023-04-17T10:58:50.113Z,57.40
2023-04-17T11:00:31.150Z,57.33
2023-04-17T11:02:21.686Z,58.55
2023-04-17T11:03:54.806Z,59.68
2023-04-17T11:05:39.762Z,60.76
2023-04-17T11:07:24.823Z,61.86
2023-04-17T11:09:09.852Z,63.54
2023-04-17T11:10:41.398Z,63.28
2023-04-17T11:12:26.408Z,60.98
2023-04-17T11:14:14.226Z,57.30
2023-04-17T11:15:58.579Z,56.08
2023-04-17T11:17:31.918Z,57.38
2023-04-17T11:19:17.992Z,59.48
2023-04-17T11:20:51.718Z,60.81
2023-04-17T11:22:25.395Z,61.91
2023-04-17T11:23:59.322Z,62.62
2023-04-17T11:25:23.547Z,63.90
2023-04-17T11:26:59.485Z,63.12
2023-04-17T11:28:32.984Z,60.38
2023-04-17T11:30:09.047Z,56.60
2023-04-17T11:31:44.717Z,56.57
2023-04-17T11:33:18.492Z,57.38
2023-04-17T11:35:08.161Z,58.95
2023-04-17T11:36:41.470Z,60.26
2023-04-17T11:38:17.538Z,61.15
2023-04-17T11:39:51.679Z,63.38
2023-04-17T11:41:23.697Z,63.56
2023-04-17T11:43:11.131Z,60.48
2023-04-17T11:44:44.460Z,57.53
2023-04-17T11:46:25.451Z,55.73
2023-04-17T11:48:02.201Z,57.31
2023-04-17T11:49:37.810Z,59.13
2023-04-17T11:51:13.864Z,60.59
2023-04-17T11:52:47.855Z,62.10
2023-04-17T11:54:29.032Z,64.32
2023-04-17T11:56:02.697Z,63.28
2023-04-17T11:57:50.540Z,61.15
2023-04-17T11:59:24.094Z,58.33
2023-04-17T12:00:57.555Z,57.53
2023-04-17T12:02:21.673Z,58.21
2023-04-17T12:03:50.615Z,59.76
2023-04-17T12:05:24.165Z,61.81
2023-04-17T12:07:14.494Z,63.51
2023-04-17T12:08:50.353Z,62.92
2023-04-17T12:10:14.436Z,60.86
2023-04-17T12:11:56.890Z,58.56
2023-04-17T12:13:42.176Z,57.06
2023-04-17T12:15:23.231Z,58.17
2023-04-17T12:16:56.589Z,59.99
2023-04-17T12:18:29.654Z,61.48
2023-04-17T12:20:24.343Z,63.34
2023-04-17T12:22:04.794Z,64.25
2023-04-17T12:23:50.992Z,62.19
2023-04-17T12:25:27.178Z,59.39
2023-04-17T12:27:09.155Z,57.57
2023-04-17T12:28:58.222Z,57.78
2023-04-17T12:30:51.681Z,60.28
2023-04-17T12:32:32.492Z,61.79
2023-04-17T12:34:18.180Z,64.47
2023-04-17T12:35:51.912Z,64.08
2023-04-17T12:37:25.609Z,62.00
2023-04-17T12:38:52.436Z,60.06
2023-04-17T12:40:14.331Z,58.19
2023-04-17T12:42:00.002Z,58.06
2023-04-17T12:43:35.742Z,59.57
2023-04-17T12:45:20.210Z,61.46
2023-04-17T12:47:15.296Z,63.02
2023-04-17T12:49:00.788Z,64.34
2023-04-17T12:50:46.402Z,62.73
2023-04-17T12:52:08.551Z,60.29
2023-04-17T12:53:53.863Z,57.71
2023-04-17T12:55:38.526Z,57.37
2023-04-17T12:57:11.531Z,58.71
2023-04-17T12:58:45.354Z,60.20
2023-04-17T13:00:07.275Z,61.90
2023-04-17T13:01:43.629Z,63.88
2023-04-17T13:03:17.898Z,63.70
2023-04-17T13:05:03.303Z,61.31
2023-04-17T13:06:27.105Z,58.78
2023-04-17T13:08:22.216Z,57.19
2023-04-17T13:09:58.167Z,58.95
2023-04-17T13:11:33.751Z,59.52
2023-04-17T13:13:07.267Z,60.72
2023-04-17T13:14:43.510Z,63.39
2023-04-17T13:16:17.208Z,64.19
2023-04-17T13:17:58.092Z,62.11
2023-04-17T13:19:31.850Z,58.99
2023-04-17T13:21:06.544Z,57.00
2023-04-17T13:23:01.198Z,57.33
2023-04-17T13:24:54.619Z,59.27
2023-04-17T13:26:25.804Z,61.36
2023-04-17T13:28:09.218Z,63.41
2023-04-17T13:29:43.010Z,63.61
2023-04-17T13:31:28.311Z,62.27
2023-04-17T13:35:09.075Z,56.30
2023-04-17T13:36:44.934Z,57.21
2023-04-17T13:38:30.398Z,58.70
2023-04-17T13:40:05.474Z,61.19
2023-04-17T13:41:26.976Z,61.87
2023-04-17T13:43:08.816Z,63.59
2023-04-17T13:44:44.385Z,63.12
2023-04-17T13:46:18.210Z,60.31
2023-04-17T13:48:13.294Z,56.80
2023-04-17T13:49:51.997Z,56.22
2023-04-17T13:51:32.462Z,57.86
2023-04-17T13:53:04.354Z,58.45
2023-04-17T13:54:26.196Z,59.58
2023-04-17T13:56:00.010Z,60.56
2023-04-17T13:57:53.236Z,61.89
2023-04-17T13:59:28.717Z,61.80
2023-04-17T14:00:57.910Z,62.73
2023-04-17T14:02:33.649Z,64.05
2023-04-17T14:04:17.354Z,62.57
2023-04-17T14:05:53.898Z,58.94
2023-04-17T14:07:29.946Z,55.12
2023-04-17T14:08:54.204Z,55.17
2023-04-17T14:10:39.232Z,55.98
2023-04-17T14:12:34.167Z,57.38
2023-04-17T14:14:07.746Z,59.34
2023-04-17T14:15:54.924Z,60.26
2023-04-17T14:17:27.839Z,61.13
2023-04-17T14:19:14.685Z,61.92
2023-04-17T14:21:00.576Z,63.85
2023-04-17T14:22:45.601Z,62.88
2023-04-17T14:24:19.122Z,58.89
2023-04-17T14:25:52.911Z,55.89
2023-04-17T14:27:28.424Z,55.47
2023-04-17T14:29:01.948Z,56.23
2023-04-17T14:30:23.969Z,57.81
2023-04-17T14:31:58.201Z,59.53
2023-04-17T14:33:31.773Z,60.19
2023-04-17T14:34:55.819Z,60.79
2023-04-17T14:36:31.259Z,61.69
2023-04-17T14:38:13.105Z,62.33
2023-04-17T14:39:49.542Z,63.16
2023-04-17T14:41:34.892Z,61.46
2023-04-17T14:43:11.773Z,58.35
2023-04-17T14:44:45.630Z,56.54
2023-04-17T14:46:27.928Z,56.85
2023-04-17T14:48:13.268Z,57.32
2023-04-17T14:49:47.192Z,58.86
2023-04-17T14:51:31.950Z,59.82
2023-04-17T14:53:04.371Z,60.80
2023-04-17T14:54:28.150Z,61.72
2023-04-17T14:56:03.710Z,63.22
2023-04-17T14:57:25.833Z,63.75
2023-04-17T14:59:06.506Z,62.24
2023-04-17T15:00:32.894Z,59.38
2023-04-17T15:01:55.690Z,57.32
2023-04-17T15:03:50.285Z,57.22
2023-04-17T15:05:28.192Z,59.31
2023-04-17T15:07:10.650Z,61.18
2023-04-17T15:09:05.182Z,63.74
2023-04-17T15:10:50.801Z,64.71
2023-04-17T15:12:33.191Z,61.87
2023-04-17T15:13:57.487Z,59.99
2023-04-17T15:15:22.024Z,58.32
2023-04-17T15:16:51.317Z,57.51
2023-04-17T15:18:27.182Z,58.61
2023-04-17T15:20:09.269Z,60.20
2023-04-17T15:21:33.250Z,61.92
2023-04-17T15:23:19.746Z,64.41
2023-04-17T15:25:05.207Z,63.67
2023-04-17T15:26:27.387Z,61.05
2023-04-17T15:27:49.062Z,58.53
2023-04-17T15:29:21.832Z,56.94
2023-04-17T15:30:45.898Z,58.09
2023-04-17T15:32:14.796Z,59.66
2023-04-17T15:34:00.209Z,61.00
2023-04-17T15:35:33.206Z,63.35
2023-04-17T15:37:07.191Z,64.71
2023-04-17T15:38:48.344Z,62.95
2023-04-17T15:40:19.810Z,60.71
2023-04-17T15:44:25.177Z,57.37
2023-04-17T15:46:18.991Z,59.44
2023-04-17T15:48:04.039Z,62.15
2023-04-17T15:49:33.130Z,64.19
2023-04-17T15:51:15.244Z,64.48
2023-04-17T15:53:05.178Z,62.01
2023-04-17T15:54:26.948Z,59.86
2023-04-17T15:56:20.374Z,58.03
2023-04-17T15:57:56.045Z,58.35
2023-04-17T15:59:41.185Z,59.99
2023-04-17T16:01:26.493Z,62.22
2023-04-17T16:03:19.765Z,65.16
2023-04-17T16:05:05.384Z,64.05
2023-04-17T16:06:29.677Z,61.89
2023-04-17T16:08:01.293Z,60.21
2023-04-17T16:09:46.516Z,58.45
2023-04-17T16:11:20.714Z,57.95
2023-04-17T16:13:15.168Z,59.77
2023-04-17T16:14:50.759Z,61.91
2023-04-17T16:16:27.177Z,64.82
2023-04-17T16:18:00.871Z,64.78
2023-04-17T16:19:36.515Z,62.84
2023-04-17T16:21:06.223Z,60.89
2023-04-17T16:22:39.655Z,59.01
2023-04-17T16:24:13.149Z,57.83
2023-04-17T16:25:57.995Z,58.97
2023-04-17T16:27:48.044Z,61.23
2023-04-17T16:29:12.193Z,63.54
2023-04-17T16:30:47.750Z,64.98
2023-04-17T16:32:32.826Z,63.71
2023-04-17T16:34:06.410Z,61.57
2023-04-17T16:35:39.728Z,59.96
2023-04-17T16:37:24.840Z,58.30
2023-04-17T16:39:19.181Z,58.55
2023-04-17T16:41:11.168Z,60.71
2023-04-17T16:42:44.668Z,63.62
2023-04-17T16:44:14.502Z,64.97
2023-04-17T16:45:38.411Z,63.93
2023-04-17T16:48:39.960Z,60.37
2023-04-17T16:50:14.157Z,58.82
2023-04-17T16:51:35.864Z,58.18
2023-04-17T16:52:58.052Z,59.30
2023-04-17T16:54:39.110Z,61.26
2023-04-17T16:56:24.486Z,63.59
2023-04-17T16:58:09.242Z,65.04
2023-04-17T16:59:54.555Z,63.16
2023-04-17T17:01:28.211Z,60.96
2023-04-17T17:02:50.569Z,59.46
2023-04-17T17:04:20.237Z,58.14
2023-04-17T17:05:46.488Z,58.67
2023-04-17T17:07:16.298Z,60.21
2023-04-17T17:08:49.856Z,62.43
2023-04-17T17:10:23.541Z,64.87
2023-04-17T17:11:57.039Z,64.21
2023-04-17T17:13:19.043Z,62.43
2023-04-17T17:14:45.687Z,60.69
2023-04-17T17:16:21.587Z,59.16
2023-04-17T17:17:43.630Z,57.92
2023-04-17T17:19:05.939Z,58.70
2023-04-17T17:20:35.267Z,60.30
2023-04-17T17:21:57.344Z,62.13
2023-04-17T17:23:32.213Z,64.63
2023-04-17T17:25:14.258Z,65.09
2023-04-17T17:26:37.065Z,63.12
2023-04-17T17:28:01.865Z,61.35
2023-04-17T17:29:33.616Z,59.86
2023-04-17T17:30:56.231Z,58.38
2023-04-17T17:32:29.492Z,58.33
2023-04-17T17:35:53.083Z,62.85
2023-04-17T17:37:25.229Z,64.79
2023-04-17T17:39:00.248Z,64.49
2023-04-17T17:40:29.646Z,62.46
2023-04-17T17:41:51.568Z,60.85
2023-04-17T17:43:13.477Z,59.57
2023-04-17T17:44:49.176Z,58.17
2023-04-17T17:46:34.303Z,58.86
2023-04-17T17:48:21.663Z,61.14
2023-04-17T17:49:57.009Z,63.79
2023-04-17T17:51:37.927Z,64.93
2023-04-17T17:53:26.388Z,63.43
2023-04-17T17:54:53.795Z,61.33
2023-04-17T17:56:38.649Z,59.70
2023-04-17T17:58:24.619Z,58.09
2023-04-17T17:59:51.660Z,58.98
2023-04-17T18:01:16.329Z,60.64
2023-04-17T18:03:02.128Z,62.82
2023-04-17T18:04:36.238Z,65.26
2023-04-17T18:06:21.737Z,64.44
2023-04-17T18:08:02.707Z,62.25
2023-04-17T18:09:36.582Z,60.31
2023-04-17T18:11:22.130Z,58.77
2023-04-17T18:13:05.202Z,58.17
2023-04-17T18:14:42.117Z,59.90
2023-04-17T18:16:27.191Z,62.36
2023-04-17T18:18:01.224Z,64.85
2023-04-17T18:19:42.117Z,64.39
2023-04-17T18:21:23.462Z,62.46
2023-04-17T18:22:59.143Z,60.43
2023-04-17T18:24:32.928Z,58.78
2023-04-17T18:26:26.629Z,58.18
2023-04-17T18:28:11.904Z,60.23
2023-04-17T18:29:47.418Z,62.24
2023-04-17T18:31:21.859Z,64.90
2023-04-17T18:32:44.730Z,64.92
2023-04-17T18:34:30.593Z,62.90
2023-04-17T18:36:06.649Z,60.86
2023-04-17T18:37:47.780Z,59.19
2023-04-17T18:39:21.663Z,58.37
2023-04-17T18:41:02.614Z,59.48
2023-04-17T18:42:26.822Z,61.31
2023-04-17T18:44:10.329Z,63.38
2023-04-17T18:47:58.320Z,62.51
2023-04-17T18:49:30.076Z,60.52
2023-04-17T18:51:15.484Z,58.40
2023-04-17T18:53:00.748Z,58.06
2023-04-17T18:54:30.708Z,59.78
2023-04-17T18:56:16.248Z,61.95
2023-04-17T18:57:52.508Z,64.67
2023-04-17T18:59:26.387Z,64.67
2023-04-17T19:01:13.416Z,62.54
2023-04-17T19:02:55.592Z,60.44
2023-04-17T19:04:31.636Z,58.53
2023-04-17T19:06:14.284Z,58.04
2023-04-17T19:08:00.122Z,59.99
2023-04-17T19:09:31.627Z,62.12
2023-04-17T19:11:25.415Z,64.56
2023-04-17T19:13:20.252Z,64.18
2023-04-17T19:15:10.679Z,61.60
2023-04-17T19:16:47.454Z,59.44
2023-04-17T19:18:32.656Z,57.64
2023-04-17T19:20:08.832Z,58.68
2023-04-17T19:21:41.044Z,60.30
2023-04-17T19:23:20.622Z,62.15
2023-04-17T19:24:42.109Z,64.38
2023-04-17T19:26:09.169Z,64.30
2023-04-17T19:27:43.246Z,62.60
2023-04-17T19:29:25.699Z,60.34
2023-04-17T19:31:00.844Z,58.28
2023-04-17T19:32:41.945Z,57.75
2023-04-17T19:34:15.877Z,59.35
2023-04-17T19:35:49.495Z,61.78
2023-04-17T19:37:34.552Z,63.84
2023-04-17T19:38:59.758Z,64.30
2023-04-17T19:40:33.186Z,62.48
2023-04-17T19:42:15.847Z,60.37
2023-04-17T19:43:49.683Z,57.86
2023-04-17T19:45:21.776Z,57.39
2023-04-17T19:47:10.280Z,58.76
2023-04-17T19:48:44.505Z,60.80
2023-04-17T19:50:18.109Z,62.27
2023-04-17T19:53:56.688Z,63.68
2023-04-17T19:55:42.397Z,60.87
2023-04-17T19:57:16.300Z,58.26
2023-04-17T19:59:11.649Z,57.39
2023-04-17T20:00:41.881Z,58.60
2023-04-17T20:02:07.478Z,60.56
2023-04-17T20:03:52.119Z,62.54
2023-04-17T20:05:46.152Z,64.26
2023-04-17T20:07:40.696Z,62.41
2023-04-17T20:09:23.117Z,59.92
2023-04-17T20:10:56.567Z,57.60
2023-04-17T20:12:41.575Z,57.68
2023-04-17T20:14:15.750Z,59.23
2023-04-17T20:16:10.679Z,61.04
2023-04-17T20:17:55.507Z,63.08
2023-04-17T20:19:41.004Z,64.78
2023-04-17T20:21:17.146Z,62.95
2023-04-17T20:22:52.772Z,60.65
2023-04-17T20:24:37.763Z,58.13
2023-04-17T20:26:22.776Z,57.24
2023-04-17T20:27:59.823Z,58.70
2023-04-17T20:29:44.764Z,60.60
2023-04-17T20:31:21.009Z,62.68
2023-04-17T20:33:06.436Z,64.36
2023-04-17T20:34:41.381Z,62.62
2023-04-17T20:36:11.067Z,60.34
2023-04-17T20:37:44.196Z,58.09
2023-04-17T20:39:29.586Z,57.37
2023-04-17T20:40:54.618Z,58.66
2023-04-17T20:42:39.279Z,60.54
2023-04-17T20:44:33.687Z,62.18
2023-04-17T20:46:07.320Z,64.37
2023-04-17T20:47:56.887Z,63.31
2023-04-17T20:49:42.445Z,60.33
2023-04-17T20:51:27.566Z,57.46
2023-04-17T20:52:52.170Z,56.93
2023-04-17T20:54:26.393Z,58.65
2023-04-17T20:55:48.650Z,60.08
2023-04-17T20:57:12.887Z,61.99
2023-04-17T20:58:53.081Z,63.48
2023-04-17T21:00:22.269Z,64.03
2023-04-17T21:01:46.427Z,62.13
2023-04-17T21:03:10.502Z,59.81
2023-04-17T21:04:51.265Z,57.55
2023-04-17T21:06:17.734Z,57.46
2023-04-17T21:07:41.656Z,58.85
2023-04-17T21:09:13.809Z,60.39
2023-04-17T21:10:35.591Z,61.89
2023-04-17T21:12:20.985Z,63.88
2023-04-17T21:13:54.799Z,64.32
2023-04-17T21:15:23.999Z,62.33
2023-04-17T21:16:50.379Z,60.01
2023-04-17T21:18:14.328Z,58.19
2023-04-17T21:20:01.595Z,57.48